Terminal Aerodrome Forecast
Issued by NWS Cleveland, OH

Home | Current Version | Previous Version | Text Only | Print | Product List | Glossary On
Versions: 1 2 3 4 5 6 7 8 9 10 11 12 13 14 15 16 17 18 19 20 21 22 23 24 25 26 27
562
FTUS41 KCLE 101138
TAFMFD
TAF
KMFD 101138Z 1012/1112 24012G20KT 6SM -SHSN BKN015 OVC035
      TEMPO 1012/1015 3SM -SHSN OVC015
     FM101500 25015G22KT 3SM -SHSN BKN015 OVC025
      TEMPO 1015/1019 1SM -SHSN OVC015
     FM101900 27015G25KT 3SM -SHSN OVC025
     FM110500 28010KT P6SM BKN025=

USA.gov is the U.S. government's official web portal to all federal, state and local government web resources and services.